Terminal Aerodrome Forecast
Issued by NWS Charleston, WV

Current Version | Previous Version | Text Only | Print | Product List | Glossary Off
Versions: 1 2 3 4 5 6 7 8 9 10 11 12 13 14 15 16 17 18 19 20 21

000
FTUS41 KRLX 021130
TAFPKB
TAF
KPKB 021130Z 0212/0312 VRB03KT P6SM BKN025
     FM022100 28007KT P6SM -SHRA BKN040
     FM030600 00000KT 4SM BR OVC015=

USA.gov is the U.S. government's official web portal to all federal, state and local government web resources and services.